Time;durP1;ratioP1;P1;durP2;ratioP2;P2;SDS_P1;SDS_P2;PMS_P1;PMS_P2;Temp;Humidity;BMP_temperature;BMP_pressure;BME280_temperature;BME280_humidity;BME280_pressure;Samples;Min_cycle;Max_cycle;Signal;HPM_P1;HPM_P2
2022/11/30 00:01:57;;;;;;;17.10;9.40;;;5.30;99.90;;;;;;4998694;28;20189;-70
2022/11/30 00:04:22;;;;;;;17.50;9.50;;;5.30;99.90;;;;;;5004155;28;20696;-71
2022/11/30 00:06:48;;;;;;;26.23;9.77;;;5.30;99.90;;;;;;4992717;28;20183;-70
2022/11/30 00:09:14;;;;;;;27.97;9.97;;;5.40;99.90;;;;;;4992980;28;20214;-70
2022/11/30 00:11:39;;;;;;;23.77;11.10;;;5.20;99.90;;;;;;4993604;28;20267;-70
2022/11/30 00:14:05;;;;;;;17.67;9.23;;;5.30;99.90;;;;;;5003441;28;20211;-70
2022/11/30 00:16:31;;;;;;;17.57;7.77;;;5.30;99.90;;;;;;4992847;28;20188;-70
2022/11/30 00:18:56;;;;;;;19.63;9.67;;;5.30;99.90;;;;;;4999842;28;20551;-70
2022/11/30 00:21:22;;;;;;;26.37;10.37;;;5.40;99.90;;;;;;4998718;28;20590;-70
2022/11/30 00:23:48;;;;;;;29.20;10.00;;;5.30;99.90;;;;;;5010687;28;20175;-70
2022/11/30 00:26:16;;;;;;;19.33;10.17;;;5.30;99.90;;;;;;5002246;28;20622;-71
2022/11/30 00:28:44;;;;;;;16.30;9.13;;;5.30;99.90;;;;;;4999993;28;20474;-70
2022/11/30 00:31:13;;;;;;;19.80;10.00;;;5.30;99.90;;;;;;5000834;28;20513;-70
2022/11/30 00:33:39;;;;;;;19.67;11.07;;;5.20;99.90;;;;;;4992026;28;20427;-70
2022/11/30 00:36:07;;;;;;;17.60;9.80;;;5.30;99.90;;;;;;5002801;28;20513;-70
2022/11/30 00:38:33;;;;;;;27.20;9.77;;;5.30;99.90;;;;;;5007693;28;20506;-70
2022/11/30 00:41:00;;;;;;;23.63;11.40;;;5.20;99.90;;;;;;4995592;28;20466;-70
2022/11/30 00:43:26;;;;;;;16.87;9.90;;;5.30;99.90;;;;;;5000694;28;20898;-70
2022/11/30 00:45:51;;;;;;;22.50;10.33;;;5.20;99.90;;;;;;5008727;28;20423;-70
2022/11/30 00:48:17;;;;;;;25.57;11.60;;;5.20;99.90;;;;;;4992117;28;20187;-70
2022/11/30 00:50:43;;;;;;;23.40;11.03;;;5.20;99.90;;;;;;4994999;28;20198;-70
2022/11/30 00:53:08;;;;;;;20.00;11.23;;;5.20;99.90;;;;;;5010890;28;20183;-69
2022/11/30 00:55:34;;;;;;;29.97;11.10;;;5.20;99.90;;;;;;4998601;28;20199;-70
2022/11/30 00:58:00;;;;;;;32.80;11.50;;;5.20;99.90;;;;;;5011674;28;20305;-70
2022/11/30 01:00:26;;;;;;;26.10;11.77;;;5.20;99.90;;;;;;5011417;28;20230;-70
2022/11/30 01:02:55;;;;;;;24.13;10.10;;;5.20;99.90;;;;;;5002089;28;20263;-70
2022/11/30 01:05:21;;;;;;;21.23;10.83;;;5.20;99.90;;;;;;4992273;28;20419;-70
2022/11/30 01:07:47;;;;;;;18.77;10.27;;;5.20;99.90;;;;;;4991681;28;20430;-70
2022/11/30 01:10:12;;;;;;;27.07;11.47;;;5.20;99.90;;;;;;4991939;28;20192;-70
2022/11/30 01:12:38;;;;;;;25.30;12.20;;;5.20;99.90;;;;;;4991708;28;20565;-70
2022/11/30 01:15:04;;;;;;;23.60;11.17;;;5.20;99.90;;;;;;4993940;28;20183;-70
2022/11/30 01:17:30;;;;;;;31.33;11.27;;;5.20;99.90;;;;;;5011487;28;20265;-70
2022/11/30 01:19:55;;;;;;;27.03;10.90;;;5.20;99.90;;;;;;5009289;28;20552;-70
2022/11/30 01:22:21;;;;;;;20.73;11.23;;;5.20;99.90;;;;;;5010884;28;20560;-70
2022/11/30 01:24:46;;;;;;;27.90;9.90;;;5.10;99.90;;;;;;4991274;28;20183;-70
2022/11/30 01:27:12;;;;;;;24.80;10.27;;;5.10;99.90;;;;;;4995566;28;20776;-70
2022/11/30 01:29:37;;;;;;;20.90;10.10;;;5.10;99.90;;;;;;5004958;28;20187;-70
2022/11/30 01:32:03;;;;;;;22.30;10.13;;;5.10;99.90;;;;;;4991546;28;20211;-71
2022/11/30 01:34:29;;;;;;;18.50;8.47;;;5.10;99.90;;;;;;4994039;28;20190;-71
2022/11/30 01:36:54;;;;;;;24.37;9.47;;;5.10;99.90;;;;;;5011744;28;20464;-70
2022/11/30 01:39:20;;;;;;;21.63;9.67;;;5.10;99.90;;;;;;4999329;28;20318;-70
2022/11/30 01:41:46;;;;;;;29.43;9.43;;;5.10;99.90;;;;;;5003683;28;20187;-70
2022/11/30 01:44:14;;;;;;;21.60;10.07;;;5.10;99.90;;;;;;5014145;28;20183;-70
2022/11/30 01:46:48;;;;;;;25.10;9.40;;;5.10;99.90;;;;;;5014880;28;20190;-70
2022/11/30 01:49:22;;;;;;;23.80;10.13;;;5.10;99.90;;;;;;5001359;28;20429;-70
2022/11/30 01:51:50;;;;;;;19.33;10.00;;;5.10;99.90;;;;;;5014217;28;20422;-70
2022/11/30 01:54:21;;;;;;;22.60;9.70;;;5.10;99.90;;;;;;5009095;28;20526;-70
2022/11/30 01:56:51;;;;;;;31.93;11.73;;;5.10;99.90;;;;;;5007342;28;20902;-70
2022/11/30 01:59:20;;;;;;;27.60;11.30;;;5.10;99.90;;;;;;5007166;28;20537;-71
2022/11/30 02:01:46;;;;;;;21.43;10.40;;;5.00;99.90;;;;;;5006814;28;20426;-70
2022/11/30 02:04:22;;;;;;;26.53;10.40;;;5.00;99.90;;;;;;5001062;28;20421;-70
2022/11/30 02:06:48;;;;;;;26.03;12.07;;;5.00;99.90;;;;;;4999763;28;20179;-71
2022/11/30 02:09:16;;;;;;;33.93;11.10;;;5.00;99.90;;;;;;4994516;28;20517;-71
2022/11/30 02:11:42;;;;;;;23.33;10.70;;;5.00;99.90;;;;;;5008768;28;20457;-70
2022/11/30 02:14:11;;;;;;;29.03;10.00;;;5.00;99.90;;;;;;5005130;28;20423;-70
2022/11/30 02:16:36;;;;;;;17.17;8.73;;;5.00;99.90;;;;;;5004284;28;20176;-70
2022/11/30 02:19:20;;;;;;;27.47;10.90;;;5.00;99.90;;;;;;5003416;28;20903;-71
2022/11/30 02:22:16;;;;;;;20.17;10.17;;;5.00;99.90;;;;;;4999448;28;20190;-70
2022/11/30 02:25:15;;;;;;;20.93;10.87;;;5.00;99.90;;;;;;4992706;28;20517;-70
2022/11/30 02:28:15;;;;;;;27.90;10.33;;;5.00;99.90;;;;;;5001878;28;20421;-70
2022/11/30 02:30:45;;;;;;;21.93;10.50;;;5.00;99.90;;;;;;4989382;28;20499;-70
2022/11/30 02:33:17;;;;;;;24.97;10.10;;;5.00;99.90;;;;;;5012354;28;20801;-70
2022/11/30 02:35:46;;;;;;;30.77;12.10;;;5.00;99.90;;;;;;5001563;28;20431;-70
2022/11/30 02:38:13;;;;;;;30.27;11.50;;;5.00;99.90;;;;;;5006908;28;20829;-70
2022/11/30 02:40:39;;;;;;;20.60;9.77;;;5.00;99.90;;;;;;5006128;28;20454;-70
2022/11/30 02:43:06;;;;;;;23.87;10.23;;;5.00;99.90;;;;;;5012573;28;20549;-70
2022/11/30 02:45:49;;;;;;;29.80;11.63;;;5.00;99.90;;;;;;5013458;28;20669;-71
2022/11/30 02:48:19;;;;;;;33.90;11.03;;;5.00;99.90;;;;;;5008635;28;20418;-70
2022/11/30 02:50:50;;;;;;;27.27;10.50;;;5.00;99.90;;;;;;5009751;28;20426;-70
2022/11/30 02:53:16;;;;;;;28.50;11.80;;;5.00;99.90;;;;;;5002652;28;20426;-71
2022/11/30 02:55:41;;;;;;;23.27;11.03;;;4.90;99.90;;;;;;5006804;28;20439;-71
2022/11/30 02:58:07;;;;;;;21.87;10.97;;;4.90;99.90;;;;;;5003082;28;20190;-70
2022/11/30 03:00:33;;;;;;;17.87;10.70;;;4.90;99.90;;;;;;4996572;28;20204;-70
2022/11/30 03:02:58;;;;;;;26.93;10.67;;;5.00;99.90;;;;;;5003239;28;20190;-70
2022/11/30 03:05:24;;;;;;;24.20;11.17;;;4.90;99.90;;;;;;5007500;28;20519;-71
2022/11/30 03:07:49;;;;;;;22.73;11.67;;;4.90;99.90;;;;;;5012972;28;20217;-71
2022/11/30 03:10:15;;;;;;;19.47;10.30;;;4.90;99.90;;;;;;4999851;28;20564;-71
2022/11/30 03:12:41;;;;;;;31.47;10.50;;;4.90;99.90;;;;;;5002819;28;20180;-71
2022/11/30 03:15:06;;;;;;;24.43;10.03;;;4.90;99.90;;;;;;5009287;28;20631;-71
2022/11/30 03:17:32;;;;;;;27.43;12.17;;;4.90;99.90;;;;;;4985852;28;20190;-71
2022/11/30 03:19:58;;;;;;;31.87;12.90;;;4.90;99.90;;;;;;5006730;28;20313;-71
2022/11/30 03:22:24;;;;;;;28.53;10.60;;;4.90;99.90;;;;;;5002682;28;20186;-71
2022/11/30 03:24:49;;;;;;;29.60;10.40;;;4.90;99.90;;;;;;5003453;28;20195;-71
2022/11/30 03:27:15;;;;;;;17.37;9.33;;;4.90;99.90;;;;;;5011290;28;20915;-71
2022/11/30 03:29:41;;;;;;;23.73;10.37;;;4.80;99.90;;;;;;5011386;28;20257;-71
2022/11/30 03:32:06;;;;;;;29.60;9.90;;;4.80;99.90;;;;;;5012452;28;20187;-72
2022/11/30 03:34:32;;;;;;;19.37;9.20;;;4.80;99.90;;;;;;5009550;28;20531;-71
2022/11/30 03:36:58;;;;;;;21.17;10.67;;;4.80;99.90;;;;;;5002450;28;20719;-71
2022/11/30 03:39:24;;;;;;;23.50;10.37;;;4.90;99.90;;;;;;4998984;28;20292;-72
2022/11/30 03:41:50;;;;;;;23.67;11.70;;;4.80;99.90;;;;;;5002987;28;20211;-71
2022/11/30 03:44:16;;;;;;;22.57;11.63;;;4.80;99.90;;;;;;5007669;28;20179;-71
2022/11/30 03:46:41;;;;;;;24.37;11.47;;;4.80;99.90;;;;;;5012612;28;20179;-72
2022/11/30 03:49:07;;;;;;;19.90;10.33;;;4.80;99.90;;;;;;5000904;28;20426;-71
2022/11/30 03:51:33;;;;;;;27.30;10.90;;;4.80;99.90;;;;;;5001367;28;20187;-71
2022/11/30 03:53:58;;;;;;;28.20;10.40;;;4.80;99.90;;;;;;5012107;28;20550;-71
2022/11/30 03:56:24;;;;;;;22.37;8.67;;;4.90;99.90;;;;;;5004775;28;20662;-71
2022/11/30 03:58:50;;;;;;;25.50;9.77;;;4.80;99.90;;;;;;5003426;28;20179;-72
2022/11/30 04:01:20;;;;;;;24.57;11.60;;;4.80;99.90;;;;;;5012136;28;20222;-71
2022/11/30 04:03:47;;;;;;;22.13;9.87;;;4.80;99.90;;;;;;5011934;28;21090;-71
2022/11/30 04:06:12;;;;;;;21.47;11.30;;;4.80;99.90;;;;;;5012538;28;20422;-71
2022/11/30 04:08:39;;;;;;;22.47;9.73;;;4.80;99.90;;;;;;5012295;28;20972;-71
2022/11/30 04:11:05;;;;;;;19.93;8.93;;;4.80;99.90;;;;;;5012187;28;20191;-71
2022/11/30 04:13:32;;;;;;;19.80;10.10;;;4.80;99.90;;;;;;5010889;28;20430;-71
2022/11/30 04:15:58;;;;;;;18.83;10.90;;;4.80;99.90;;;;;;5002825;28;20429;-71
2022/11/30 04:18:25;;;;;;;17.87;8.83;;;4.90;99.90;;;;;;4992257;28;20967;-71
2022/11/30 04:20:52;;;;;;;25.13;9.53;;;4.90;99.90;;;;;;5003110;28;20214;-71
2022/11/30 04:23:18;;;;;;;23.00;10.60;;;4.80;99.90;;;;;;5008838;28;20453;-70
2022/11/30 04:25:44;;;;;;;22.47;9.87;;;4.80;99.90;;;;;;5002679;28;20433;-71
2022/11/30 04:28:10;;;;;;;25.53;10.00;;;4.80;99.90;;;;;;5010281;28;20425;-70
2022/11/30 04:30:36;;;;;;;19.50;8.53;;;4.80;99.90;;;;;;5004991;28;20442;-71
2022/11/30 04:33:03;;;;;;;20.03;9.27;;;4.80;99.90;;;;;;5002097;28;20187;-72
2022/11/30 04:35:29;;;;;;;20.83;11.10;;;4.80;99.90;;;;;;5002005;28;20750;-70
2022/11/30 04:37:54;;;;;;;22.93;10.77;;;4.80;99.90;;;;;;5008551;28;21035;-71
2022/11/30 04:40:20;;;;;;;24.67;11.17;;;4.80;99.90;;;;;;4991860;28;20207;-70
2022/11/30 04:42:46;;;;;;;24.53;10.73;;;4.80;99.90;;;;;;4994865;28;20210;-70
2022/11/30 04:45:12;;;;;;;30.13;11.63;;;4.80;99.90;;;;;;5010264;28;20179;-70
2022/11/30 04:47:38;;;;;;;17.33;8.13;;;4.80;99.90;;;;;;5003911;28;20172;-70
2022/11/30 04:50:05;;;;;;;33.70;11.60;;;4.80;99.90;;;;;;4999469;28;20449;-70
2022/11/30 04:52:31;;;;;;;21.50;7.93;;;4.80;99.90;;;;;;4995587;28;20321;-71
2022/11/30 04:54:56;;;;;;;17.87;9.53;;;4.80;99.90;;;;;;5011706;28;20456;-70
2022/11/30 04:57:22;;;;;;;22.93;9.87;;;4.80;99.90;;;;;;5004267;28;20195;-70
2022/11/30 04:59:48;;;;;;;18.67;9.10;;;4.80;99.90;;;;;;4991542;28;20211;-70
2022/11/30 05:02:14;;;;;;;16.23;8.47;;;4.80;99.90;;;;;;5004676;28;20965;-71
2022/11/30 05:04:39;;;;;;;25.50;8.93;;;4.80;99.90;;;;;;5002792;28;20261;-71
2022/11/30 05:07:05;;;;;;;19.87;7.97;;;4.80;99.90;;;;;;4996370;28;20172;-71
2022/11/30 05:09:31;;;;;;;14.10;7.67;;;4.80;99.90;;;;;;4991802;28;20262;-70
2022/11/30 05:11:57;;;;;;;21.20;8.70;;;4.80;99.90;;;;;;5005331;28;20183;-71
2022/11/30 05:14:22;;;;;;;17.90;8.50;;;4.80;99.90;;;;;;5014256;28;20194;-71
2022/11/30 05:16:48;;;;;;;17.53;8.03;;;4.80;99.90;;;;;;5011697;28;20226;-71
2022/11/30 05:19:14;;;;;;;15.23;7.60;;;4.80;99.90;;;;;;5005854;28;20195;-71
2022/11/30 05:21:41;;;;;;;12.93;7.43;;;4.90;99.90;;;;;;5011225;28;20427;-71
2022/11/30 05:24:07;;;;;;;19.23;7.40;;;4.90;99.90;;;;;;5001866;28;20187;-71
2022/11/30 05:26:34;;;;;;;18.87;7.07;;;4.90;99.90;;;;;;5007064;28;20429;-71
2022/11/30 05:29:00;;;;;;;10.60;5.67;;;4.90;99.90;;;;;;5006971;28;20707;-71
2022/11/30 05:31:25;;;;;;;12.70;6.43;;;4.90;99.90;;;;;;5008058;28;20422;-71
2022/11/30 05:33:52;;;;;;;17.23;7.37;;;4.90;99.90;;;;;;5005668;28;20825;-71
2022/11/30 05:36:18;;;;;;;16.73;7.90;;;4.90;99.90;;;;;;5000158;28;20207;-71
2022/11/30 05:38:45;;;;;;;17.10;7.27;;;4.80;99.90;;;;;;5006918;28;21017;-71
2022/11/30 05:41:11;;;;;;;19.00;7.33;;;4.90;99.90;;;;;;5014888;28;20972;-71
2022/11/30 05:43:36;;;;;;;13.97;6.47;;;4.90;99.90;;;;;;5004519;28;20417;-71
2022/11/30 05:46:04;;;;;;;10.93;6.47;;;4.90;99.90;;;;;;4998367;28;20176;-71
2022/11/30 05:48:30;;;;;;;26.47;7.30;;;4.80;99.90;;;;;;4995127;28;20202;-71
2022/11/30 05:51:08;;;;;;;12.57;7.07;;;4.90;99.90;;;;;;4995088;28;20963;-70
2022/11/30 05:53:34;;;;;;;11.30;6.60;;;4.90;99.90;;;;;;4989331;28;20553;-71
2022/11/30 05:56:08;;;;;;;18.30;6.30;;;4.90;99.90;;;;;;5012560;28;20459;-71
2022/11/30 05:58:34;;;;;;;11.87;5.30;;;4.90;99.90;;;;;;5001434;28;20423;-71
2022/11/30 06:00:59;;;;;;;14.67;7.10;;;4.90;99.90;;;;;;5013448;28;20477;-71
2022/11/30 06:03:28;;;;;;;12.47;6.40;;;4.90;99.90;;;;;;5001605;28;20198;-69
2022/11/30 06:05:54;;;;;;;12.00;6.63;;;4.90;99.90;;;;;;5013830;28;20183;-69
2022/11/30 06:08:19;;;;;;;17.80;7.60;;;4.90;99.90;;;;;;5014237;28;20504;-69
2022/11/30 06:10:45;;;;;;;19.80;7.80;;;4.90;99.90;;;;;;4995102;28;20624;-70
2022/11/30 06:13:11;;;;;;;11.30;6.20;;;4.90;99.90;;;;;;4993559;28;20184;-69
2022/11/30 06:15:37;;;;;;;13.90;6.90;;;4.90;99.90;;;;;;5013818;28;20218;-69
2022/11/30 06:18:03;;;;;;;20.93;8.67;;;4.90;99.90;;;;;;5014227;28;20227;-69
2022/11/30 06:20:29;;;;;;;17.70;7.60;;;5.00;99.90;;;;;;5014047;28;20470;-70
2022/11/30 06:22:56;;;;;;;12.53;6.17;;;5.00;99.90;;;;;;5000858;28;20422;-70
2022/11/30 06:25:22;;;;;;;15.70;7.00;;;4.90;99.90;;;;;;5001955;28;20510;-70
2022/11/30 06:27:47;;;;;;;23.50;7.63;;;4.90;99.90;;;;;;5000622;28;20422;-69
2022/11/30 06:30:13;;;;;;;17.03;6.67;;;5.00;99.90;;;;;;5005400;28;20273;-70
2022/11/30 06:32:39;;;;;;;16.90;7.77;;;4.90;99.90;;;;;;5004460;28;20227;-69
2022/11/30 06:35:05;;;;;;;14.30;6.80;;;4.90;99.90;;;;;;5013445;28;20426;-70
2022/11/30 06:37:34;;;;;;;22.33;7.50;;;4.90;99.90;;;;;;5013369;28;20203;-70
2022/11/30 06:39:59;;;;;;;17.50;7.80;;;4.90;99.90;;;;;;4995994;28;20462;-69
2022/11/30 06:42:27;;;;;;;20.63;8.10;;;4.90;99.90;;;;;;5002687;28;20773;-70
2022/11/30 06:44:52;;;;;;;15.80;8.17;;;4.90;99.90;;;;;;5017447;28;20201;-69
2022/11/30 06:47:18;;;;;;;20.27;8.03;;;4.90;99.90;;;;;;5029228;28;20402;-68
2022/11/30 06:49:43;;;;;;;14.03;7.60;;;5.00;99.90;;;;;;5024190;28;20199;-69
2022/11/30 06:52:09;;;;;;;19.40;8.10;;;5.00;99.90;;;;;;5023667;28;20179;-68
2022/11/30 06:54:34;;;;;;;13.97;8.30;;;5.00;99.90;;;;;;5017757;28;20195;-69
2022/11/30 06:57:00;;;;;;;17.33;7.53;;;4.90;99.90;;;;;;5018235;28;20528;-68
2022/11/30 06:59:25;;;;;;;17.27;7.80;;;4.90;99.90;;;;;;5002958;28;20249;-69
2022/11/30 07:01:51;;;;;;;24.40;8.00;;;4.90;99.90;;;;;;4995485;28;20179;-69
2022/11/30 07:04:17;;;;;;;31.17;9.03;;;4.90;99.90;;;;;;4993810;28;20739;-69
2022/11/30 07:06:42;;;;;;;24.13;7.43;;;5.00;99.90;;;;;;4993786;28;20436;-69
2022/11/30 07:09:09;;;;;;;13.60;7.40;;;5.00;99.90;;;;;;4993782;28;20190;-69
2022/11/30 07:11:34;;;;;;;13.33;7.37;;;5.00;99.90;;;;;;4994630;28;20184;-69
2022/11/30 07:14:00;;;;;;;14.90;7.73;;;5.00;99.90;;;;;;5012331;28;20464;-69
2022/11/30 07:16:26;;;;;;;18.13;8.43;;;5.00;99.90;;;;;;5006054;28;20226;-69
2022/11/30 07:18:51;;;;;;;15.23;7.13;;;5.00;99.90;;;;;;5008475;28;20175;-69
2022/11/30 07:21:17;;;;;;;23.23;9.87;;;5.00;99.90;;;;;;5008910;28;20249;-69
2022/11/30 07:26:27;;;;;;;13.57;8.07;;;5.00;99.90;;;;;;4993136;28;20530;-69
2022/11/30 07:28:53;;;;;;;21.20;9.40;;;5.10;99.90;;;;;;4992015;28;20423;-69
2022/11/30 07:31:29;;;;;;;20.00;9.30;;;5.10;99.90;;;;;;4992989;28;20184;-69
2022/11/30 07:33:56;;;;;;;19.70;9.20;;;5.10;99.90;;;;;;5004048;28;20914;-69
2022/11/30 07:36:24;;;;;;;18.20;8.47;;;5.10;99.90;;;;;;4983119;28;20857;-69
2022/11/30 07:38:50;;;;;;;26.83;9.33;;;5.10;99.90;;;;;;4991770;28;20426;-69
2022/11/30 07:41:16;;;;;;;18.43;8.50;;;5.10;99.90;;;;;;4996449;28;20508;-69
2022/11/30 07:43:42;;;;;;;22.00;9.97;;;5.10;99.90;;;;;;5008836;28;20190;-69
2022/11/30 07:46:10;;;;;;;24.30;10.20;;;5.10;99.90;;;;;;5010734;28;20418;-69
2022/11/30 07:48:35;;;;;;;16.93;8.43;;;5.10;99.90;;;;;;4998892;28;20194;-69
2022/11/30 07:51:15;;;;;;;17.43;9.60;;;5.10;99.90;;;;;;5003900;28;20435;-69
2022/11/30 07:53:41;;;;;;;22.17;10.50;;;5.10;99.90;;;;;;5004762;28;20628;-69
2022/11/30 07:56:10;;;;;;;20.47;9.30;;;5.20;99.90;;;;;;5003901;28;20431;-69
2022/11/30 07:58:36;;;;;;;27.43;10.53;;;5.20;99.90;;;;;;5004948;28;20188;-69
2022/11/30 08:01:11;;;;;;;17.17;9.07;;;5.20;99.90;;;;;;5010733;28;20465;-69
2022/11/30 08:03:37;;;;;;;23.87;9.73;;;5.20;99.90;;;;;;5010160;28;20508;-69
2022/11/30 08:06:11;;;;;;;21.83;9.27;;;5.30;99.90;;;;;;5003077;28;20506;-69
2022/11/30 08:08:40;;;;;;;22.57;9.90;;;5.30;99.90;;;;;;5002049;28;20217;-69
2022/11/30 08:11:07;;;;;;;24.50;10.30;;;5.30;99.90;;;;;;4990243;28;20801;-69
2022/11/30 08:13:33;;;;;;;19.57;9.57;;;5.30;99.90;;;;;;5009666;28;20425;-69
2022/11/30 08:16:03;;;;;;;17.10;9.20;;;5.20;99.90;;;;;;5000012;28;20426;-69
2022/11/30 08:18:29;;;;;;;27.60;9.90;;;5.20;99.90;;;;;;5008721;28;20233;-69
2022/11/30 08:21:03;;;;;;;19.67;9.43;;;5.20;99.90;;;;;;5011725;28;20861;-69
2022/11/30 08:23:31;;;;;;;17.73;9.10;;;5.30;99.90;;;;;;4998075;28;20182;-69
2022/11/30 08:26:07;;;;;;;24.23;10.40;;;5.20;99.90;;;;;;5000916;28;20490;-69
2022/11/30 08:28:36;;;;;;;22.10;9.67;;;5.30;99.90;;;;;;4996739;28;20417;-69
2022/11/30 08:31:08;;;;;;;29.83;11.77;;;5.30;99.90;;;;;;5008599;28;20426;-69
2022/11/30 08:33:35;;;;;;;20.33;9.93;;;5.40;99.90;;;;;;5001359;28;20442;-69
2022/11/30 08:36:12;;;;;;;20.30;10.20;;;5.40;99.90;;;;;;5010203;28;20469;-69
2022/11/30 08:38:40;;;;;;;20.40;9.90;;;5.60;99.90;;;;;;5001957;28;20439;-69
2022/11/30 08:41:07;;;;;;;19.60;9.20;;;5.60;99.90;;;;;;4994812;28;20470;-69
2022/11/30 08:43:33;;;;;;;15.20;9.33;;;5.70;99.90;;;;;;5010286;28;20880;-69
2022/11/30 08:46:01;;;;;;;20.53;10.80;;;5.60;99.90;;;;;;5011583;28;20449;-69
2022/11/30 08:48:27;;;;;;;16.63;9.67;;;5.60;99.90;;;;;;5014797;28;20509;-69
2022/11/30 08:50:53;;;;;;;19.03;9.40;;;5.60;99.90;;;;;;5002298;28;20508;-69
2022/11/30 08:53:18;;;;;;;16.37;8.43;;;5.60;99.90;;;;;;5015081;28;20186;-69
2022/11/30 08:55:54;;;;;;;25.43;10.93;;;5.60;99.90;;;;;;5005605;28;20597;-69
2022/11/30 08:58:20;;;;;;;20.20;9.87;;;5.70;99.90;;;;;;5011843;28;20203;-69
2022/11/30 09:00:45;;;;;;;20.50;9.33;;;5.70;99.90;;;;;;5008575;28;20467;-69
2022/11/30 09:03:11;;;;;;;15.90;7.60;;;5.70;99.90;;;;;;4995281;28;20234;-69
2022/11/30 09:05:36;;;;;;;16.40;7.80;;;5.70;99.90;;;;;;5013752;28;20186;-69
2022/11/30 09:08:02;;;;;;;15.73;6.90;;;5.70;99.90;;;;;;5002472;28;20196;-69
2022/11/30 09:10:27;;;;;;;11.97;7.73;;;5.70;99.90;;;;;;5013750;28;20192;-69
2022/11/30 09:12:53;;;;;;;13.63;7.40;;;5.70;99.90;;;;;;5014570;28;20540;-69
2022/11/30 09:15:19;;;;;;;15.23;8.80;;;5.80;99.90;;;;;;5014196;28;20230;-69
2022/11/30 09:17:44;;;;;;;17.87;7.17;;;5.90;99.90;;;;;;4996934;28;20215;-69
2022/11/30 09:20:10;;;;;;;16.30;6.90;;;5.90;99.90;;;;;;5013217;28;20210;-69
2022/11/30 09:22:36;;;;;;;15.20;6.53;;;6.00;99.90;;;;;;5014708;28;20179;-69
2022/11/30 09:25:01;;;;;;;13.87;6.23;;;5.90;99.90;;;;;;4991363;28;20454;-69
2022/11/30 09:27:31;;;;;;;8.63;5.87;;;5.90;99.90;;;;;;5007057;28;20211;-69
2022/11/30 09:29:57;;;;;;;12.43;5.17;;;5.90;99.90;;;;;;5013369;28;20237;-69
2022/11/30 09:32:22;;;;;;;16.17;6.90;;;5.90;99.90;;;;;;5002662;28;20422;-69
2022/11/30 09:34:48;;;;;;;13.17;6.00;;;6.00;99.90;;;;;;5013851;28;20195;-68
2022/11/30 09:37:14;;;;;;;11.53;6.20;;;5.90;99.90;;;;;;5003353;28;20184;-69
2022/11/30 09:39:39;;;;;;;14.57;6.73;;;5.90;99.90;;;;;;5013289;28;20246;-68
2022/11/30 09:42:42;;;;;;;15.83;7.20;;;5.90;99.90;;;;;;5014333;28;20190;-68
2022/11/30 09:45:27;;;;;;;11.00;5.90;;;5.90;99.90;;;;;;5003651;28;20183;-68
2022/11/30 09:48:11;;;;;;;10.93;4.50;;;5.90;99.90;;;;;;4993375;28;20431;-69
2022/11/30 09:50:41;;;;;;;12.13;4.50;;;5.90;99.90;;;;;;4991152;28;20439;-69
2022/11/30 09:53:34;;;;;;;12.90;6.40;;;6.00;99.90;;;;;;5013056;28;20476;-68
2022/11/30 09:56:00;;;;;;;9.77;4.40;;;6.00;99.90;;;;;;4997190;28;20800;-69
2022/11/30 09:58:26;;;;;;;9.50;5.23;;;6.00;99.90;;;;;;4992992;28;20565;-68
2022/11/30 10:00:51;;;;;;;12.33;6.00;;;5.90;99.90;;;;;;5006958;28;20545;-68
2022/11/30 10:03:18;;;;;;;9.63;4.57;;;5.90;99.90;;;;;;5005818;28;20270;-68
2022/11/30 10:06:09;;;;;;;9.07;5.10;;;5.90;99.90;;;;;;5007363;28;20187;-68
2022/11/30 10:08:59;;;;;;;13.77;5.00;;;5.90;99.90;;;;;;4985866;28;20443;-68
2022/11/30 10:11:39;;;;;;;11.10;5.90;;;5.90;99.90;;;;;;4986096;28;20918;-69
2022/11/30 10:14:50;;;;;;;11.50;5.30;;;6.00;99.90;;;;;;4989226;28;20423;-68
2022/11/30 10:17:29;;;;;;;11.73;5.60;;;6.00;99.90;;;;;;4978219;28;20519;-68
2022/11/30 10:20:01;;;;;;;14.97;6.70;;;5.90;99.90;;;;;;4982092;28;20952;-68
2022/11/30 10:22:32;;;;;;;9.07;5.53;;;6.00;99.90;;;;;;5011437;28;20430;-68
2022/11/30 10:25:22;;;;;;;15.20;6.23;;;6.00;99.90;;;;;;5000598;28;20426;-68
2022/11/30 10:27:53;;;;;;;13.90;7.37;;;6.00;99.90;;;;;;4994141;28;20426;-68
2022/11/30 10:30:24;;;;;;;13.87;7.73;;;6.00;99.90;;;;;;5009878;28;20430;-68
2022/11/30 10:32:54;;;;;;;14.57;6.33;;;6.10;99.90;;;;;;5002481;28;20443;-68
2022/11/30 10:35:40;;;;;;;14.10;7.00;;;6.10;99.90;;;;;;5007385;28;20552;-68
2022/11/30 10:38:24;;;;;;;11.83;6.17;;;6.10;99.90;;;;;;5006293;28;20430;-68
2022/11/30 10:41:00;;;;;;;15.47;7.50;;;6.20;99.90;;;;;;5011665;28;20476;-68
2022/11/30 10:44:01;;;;;;;15.37;7.60;;;6.30;99.90;;;;;;5010772;28;20838;-68
2022/11/30 10:46:36;;;;;;;19.80;8.73;;;6.30;99.90;;;;;;4954659;28;20825;-69
2022/11/30 10:49:06;;;;;;;16.13;7.80;;;6.30;99.90;;;;;;4999679;28;20493;-68
2022/11/30 10:51:35;;;;;;;17.70;6.43;;;6.30;99.90;;;;;;5011543;28;20426;-68
2022/11/30 10:54:11;;;;;;;20.47;5.97;;;6.40;99.90;;;;;;5009522;28;20503;-68
2022/11/30 10:56:36;;;;;;;10.70;5.70;;;6.30;99.90;;;;;;5013230;28;20429;-68
2022/11/30 10:59:10;;;;;;;11.73;5.13;;;6.30;99.90;;;;;;5009404;28;20437;-68
2022/11/30 11:01:38;;;;;;;11.73;5.70;;;6.30;99.90;;;;;;5012704;28;20183;-68
2022/11/30 11:04:21;;;;;;;15.13;6.97;;;6.40;99.90;;;;;;5010920;28;20516;-68
2022/11/30 11:07:08;;;;;;;13.10;6.50;;;6.40;99.90;;;;;;5013205;28;20468;-68
2022/11/30 11:09:45;;;;;;;9.50;5.03;;;6.50;99.90;;;;;;5000157;28;21000;-68
2022/11/30 11:12:19;;;;;;;13.47;5.20;;;6.40;99.90;;;;;;5011579;28;20513;-68
2022/11/30 11:14:45;;;;;;;12.27;6.10;;;6.40;99.90;;;;;;5004175;28;20547;-68
2022/11/30 11:17:17;;;;;;;12.10;6.10;;;6.40;99.90;;;;;;5012872;28;20857;-68
2022/11/30 11:19:44;;;;;;;10.67;5.63;;;6.40;99.90;;;;;;5012642;28;20241;-68
2022/11/30 11:22:20;;;;;;;14.53;6.07;;;6.50;99.90;;;;;;5012196;28;20546;-68
2022/11/30 11:24:47;;;;;;;10.53;5.77;;;6.50;99.90;;;;;;5003576;28;20423;-68
2022/11/30 11:27:22;;;;;;;11.10;4.30;;;6.40;99.90;;;;;;4995484;28;20430;-68
2022/11/30 11:29:58;;;;;;;15.97;7.13;;;6.40;99.90;;;;;;5008102;28;20452;-68
2022/11/30 11:32:24;;;;;;;12.73;6.00;;;6.30;99.90;;;;;;5011748;28;20792;-68
2022/11/30 11:34:50;;;;;;;22.60;7.03;;;6.30;99.90;;;;;;5012040;28;20426;-68
2022/11/30 11:37:27;;;;;;;17.67;6.20;;;6.30;99.90;;;;;;5012619;28;20183;-68
2022/11/30 11:40:08;;;;;;;11.53;4.27;;;6.30;99.90;;;;;;5012513;28;20484;-68
2022/11/30 11:42:46;;;;;;;7.83;4.80;;;6.20;99.90;;;;;;5012011;28;20417;-67
2022/11/30 11:45:21;;;;;;;15.53;6.37;;;6.20;99.90;;;;;;5012199;28;20414;-67
2022/11/30 11:48:03;;;;;;;13.10;5.70;;;6.20;99.90;;;;;;5012072;28;20449;-67
2022/11/30 11:50:33;;;;;;;15.00;5.20;;;6.20;99.90;;;;;;5012432;28;20437;-67
2022/11/30 11:53:23;;;;;;;13.43;5.60;;;6.30;99.90;;;;;;5011894;28;21153;-68
2022/11/30 11:55:55;;;;;;;14.93;7.63;;;6.20;99.90;;;;;;5012442;28;20934;-67
2022/11/30 11:58:38;;;;;;;10.30;5.80;;;6.20;99.90;;;;;;5011898;28;20425;-68
2022/11/30 12:01:08;;;;;;;10.93;5.60;;;6.20;99.90;;;;;;5001518;28;20461;-67
2022/11/30 12:03:40;;;;;;;13.77;6.33;;;6.20;99.90;;;;;;5011057;28;20421;-67
2022/11/30 12:06:14;;;;;;;11.63;4.40;;;6.20;99.90;;;;;;5012162;28;20418;-67
2022/11/30 12:08:55;;;;;;;13.17;6.50;;;6.20;99.90;;;;;;5011928;28;20410;-67
2022/11/30 12:11:27;;;;;;;12.17;6.23;;;6.20;99.90;;;;;;5012235;28;20783;-68
2022/11/30 12:13:52;;;;;;;13.03;6.00;;;6.20;99.90;;;;;;5011521;28;20433;-68
2022/11/30 12:16:46;;;;;;;12.47;6.30;;;6.20;99.90;;;;;;5005230;28;20422;-68
2022/11/30 12:19:40;;;;;;;10.77;5.73;;;6.20;99.90;;;;;;5006630;28;20218;-67
2022/11/30 12:22:44;;;;;;;12.40;6.17;;;6.20;99.90;;;;;;4981166;28;20430;-67
2022/11/30 12:25:26;;;;;;;12.50;6.20;;;6.20;99.90;;;;;;5000034;28;20435;-67
2022/11/30 12:28:18;;;;;;;16.27;4.67;;;6.20;99.90;;;;;;5010872;28;20413;-67
2022/11/30 12:31:10;;;;;;;13.10;5.20;;;6.20;99.90;;;;;;5007432;28;20798;-67
2022/11/30 12:34:00;;;;;;;9.20;4.10;;;6.20;99.90;;;;;;5003304;28;20900;-68
2022/11/30 12:36:34;;;;;;;10.73;5.20;;;6.10;99.90;;;;;;5008590;28;21119;-68
2022/11/30 12:39:00;;;;;;;8.57;4.53;;;6.10;99.90;;;;;;5006723;28;20430;-68
2022/11/30 12:41:49;;;;;;;9.93;4.70;;;6.10;99.90;;;;;;5011756;28;20821;-67
2022/11/30 12:44:39;;;;;;;7.73;4.80;;;6.10;99.90;;;;;;5010208;28;20175;-67
2022/11/30 12:47:19;;;;;;;12.33;5.87;;;6.10;99.90;;;;;;5011490;28;20414;-68
2022/11/30 12:50:27;;;;;;;10.50;5.23;;;6.10;99.90;;;;;;5011157;28;20508;-68
2022/11/30 12:53:14;;;;;;;12.13;5.70;;;6.10;99.90;;;;;;4980287;28;20418;-68
2022/11/30 12:56:04;;;;;;;12.50;5.30;;;6.10;99.90;;;;;;5011485;28;20519;-67
2022/11/30 12:58:44;;;;;;;7.70;4.40;;;6.10;99.90;;;;;;4984614;28;20470;-69
2022/11/30 13:01:46;;;;;;;14.93;5.83;;;6.10;99.90;;;;;;4983495;28;20460;-67